Cassian, WI (54529)

2:55 PM CDT on August 24, 2016 (GMT -0500)
| | Change Station

Elev -9999 ft 0.00 °N, 0.00 °E | Updated

Mostly Cloudy
Mostly Cloudy
77 °F
Feels Like 77 °F
N
9
Wind Variable Wind from West
Gusts 14 mph

Today
High -- | Low -- °F
--% Chance of Precip.
Yesterday
High -- | Low -- °F
Precip. -- in
Pressure 29.87 in
Visibility 10.0 miles
Clouds Overcast 4200 ft
Dew Point 65 °F
Humidity 67%
Rainfall --
Snow Depth Not available.
6:10 AM 7:50 PM
Waning Gibbous, 54% visible
METAR KRHI 241953Z AUTO 27009KT 10SM OVC042 23/21 A2989 RMK AO2 RAE1857 SLP114 P0000 T02280206 TSNO
Pressure 29.87 in
Visibility 10.0 miles
Clouds Overcast 4200 ft
Dew Point 65 °F
Humidity 67%
Rainfall --
Snow Depth Not available.
6:10 AM 7:50 PM
Waning Gibbous, 54% visible
METAR KRHI 241953Z AUTO 27009KT 10SM OVC042 23/21 A2989 RMK AO2 RAE1857 SLP114 P0000 T02280206 TSNO

10-Day Weather Forecast

Almanac

Astronomy

Aug. 24, 2016 Rise Set
Actual Time
Civil Twilight
Nautical Twilight
Astronomical Twilight
Moon
Length of Visible Light
Length of Day
Tomorrow will be .
, % of the Moon is Illuminated

Today's Extremes

State Highs State Lows

Community

WunderPhotos

Upload Photos

1,934,690 photos uploaded!

WunderBlog® & News

Nearby

Air Quality

  Air Quality AQ Index Pollutant
Not available.

Snow Depth

Station Depth Elevation

Earthquake Activity

City Distance Mag. Time & Date
Minimum magnitude displayed is 2.5.

Coastal Water Temperatures

Place Temperature

Stations

Nearby Weather Stations

Station Location Temp. Windchill Dew Point Humidity Wind Precip. Elev Updated Type
                   

Watches & Warnings

There are currently no watches in effect.